Time;durP1;ratioP1;P1;durP2;ratioP2;P2;SDS_P1;SDS_P2;PMS_P1;PMS_P2;Temp;Humidity;BMP_temperature;BMP_pressure;BME280_temperature;BME280_humidity;BME280_pressure;Samples;Min_cycle;Max_cycle;Signal;HPM_P1;HPM_P2
2022/08/09 00:01:49;;;;;;;19.90;18.80;;;23.10;46.40;;;;;;5035802;28;20052;-80
2022/08/09 00:04:19;;;;;;;20.60;19.08;;;23.10;46.90;;;;;;5052409;28;20025;-79
2022/08/09 00:06:45;;;;;;;19.60;18.00;;;23.00;47.00;;;;;;5052457;28;20490;-80
2022/08/09 00:09:12;;;;;;;19.88;18.58;;;23.00;48.30;;;;;;5035302;28;20064;-80
2022/08/09 00:11:38;;;;;;;20.35;19.15;;;23.00;48.00;;;;;;5052156;28;20024;-79
2022/08/09 00:14:04;;;;;;;18.63;17.63;;;22.90;48.60;;;;;;5035542;28;20400;-80
2022/08/09 00:16:30;;;;;;;17.92;16.92;;;22.90;49.00;;;;;;5034999;28;20029;-80
2022/08/09 00:18:56;;;;;;;19.13;17.98;;;22.80;49.20;;;;;;5051424;28;20036;-80
2022/08/09 00:21:22;;;;;;;18.85;17.75;;;22.90;48.70;;;;;;5051981;28;20395;-80
2022/08/09 00:23:49;;;;;;;18.80;17.70;;;22.90;49.10;;;;;;5051955;28;20033;-80
2022/08/09 00:26:15;;;;;;;18.50;17.40;;;22.90;49.60;;;;;;5035221;28;20037;-80
2022/08/09 00:28:41;;;;;;;18.50;17.50;;;22.90;49.70;;;;;;5051629;28;20037;-80
2022/08/09 00:31:07;;;;;;;18.35;17.23;;;22.80;49.90;;;;;;5034794;28;20029;-81
2022/08/09 00:33:34;;;;;;;17.85;16.35;;;22.80;50.00;;;;;;5035173;28;20084;-80
2022/08/09 00:36:01;;;;;;;19.02;17.88;;;22.90;50.00;;;;;;5031827;28;20034;-80
2022/08/09 00:38:27;;;;;;;18.55;17.45;;;22.90;50.40;;;;;;5016645;28;20078;-80
2022/08/09 00:40:54;;;;;;;18.98;17.88;;;22.80;50.50;;;;;;5035439;28;20080;-80
2022/08/09 00:43:21;;;;;;;17.90;16.70;;;22.70;51.00;;;;;;5033455;28;20045;-80
2022/08/09 00:45:47;;;;;;;18.77;17.35;;;22.60;51.20;;;;;;5022159;28;20083;-80
2022/08/09 00:48:13;;;;;;;19.20;17.90;;;22.50;51.20;;;;;;5051548;28;20441;-80
2022/08/09 00:50:39;;;;;;;18.00;16.90;;;22.50;51.60;;;;;;5035061;28;20045;-80
2022/08/09 00:53:06;;;;;;;19.15;18.02;;;22.50;52.50;;;;;;5051177;28;20384;-80
2022/08/09 00:55:32;;;;;;;19.13;18.02;;;22.40;52.00;;;;;;5034762;28;20060;-80
2022/08/09 00:57:58;;;;;;;19.63;18.42;;;22.50;52.00;;;;;;5034407;28;20033;-80
2022/08/09 01:00:24;;;;;;;20.35;19.25;;;22.50;52.10;;;;;;5050924;28;20036;-80
2022/08/09 01:03:06;;;;;;;20.55;19.35;;;22.40;52.30;;;;;;5034656;28;20041;-80
2022/08/09 01:05:41;;;;;;;20.55;18.83;;;22.50;52.10;;;;;;5034372;28;20037;-80
2022/08/09 01:08:18;;;;;;;21.08;19.67;;;22.40;52.30;;;;;;5051274;28;20036;-80
2022/08/09 01:11:07;;;;;;;20.90;19.52;;;22.40;52.50;;;;;;5034204;28;20051;-80
2022/08/09 01:14:02;;;;;;;20.85;19.55;;;22.50;52.30;;;;;;5034391;28;20029;-80
2022/08/09 01:16:38;;;;;;;21.33;19.92;;;22.40;52.60;;;;;;5050563;28;20036;-80
2022/08/09 01:19:37;;;;;;;21.00;19.45;;;22.40;52.60;;;;;;5050963;28;20028;-79
2022/08/09 01:22:21;;;;;;;20.15;18.92;;;22.20;52.90;;;;;;5051119;28;20037;-80
2022/08/09 01:24:53;;;;;;;20.42;19.33;;;22.30;52.60;;;;;;5050631;28;20056;-80
2022/08/09 01:27:19;;;;;;;20.55;19.17;;;22.30;52.80;;;;;;5050657;28;20021;-80
2022/08/09 01:29:48;;;;;;;19.85;18.75;;;22.30;52.80;;;;;;5049730;28;20041;-80
2022/08/09 01:32:14;;;;;;;20.58;19.23;;;22.20;52.90;;;;;;5033644;28;20495;-80
2022/08/09 01:34:42;;;;;;;19.70;18.63;;;22.20;53.20;;;;;;5033754;28;20044;-80
2022/08/09 01:37:08;;;;;;;20.65;18.92;;;22.10;53.30;;;;;;5050757;28;20480;-80
2022/08/09 01:39:34;;;;;;;19.20;18.00;;;22.10;53.30;;;;;;5039567;28;20056;-79
2022/08/09 01:42:02;;;;;;;19.65;18.55;;;22.10;53.80;;;;;;4997883;28;20042;-80
2022/08/09 01:44:28;;;;;;;19.85;18.70;;;22.10;53.10;;;;;;5005357;28;20037;-80
2022/08/09 01:46:54;;;;;;;19.42;18.17;;;22.00;53.60;;;;;;5046541;28;20045;-80
2022/08/09 01:49:20;;;;;;;19.02;17.80;;;22.00;53.90;;;;;;5050421;28;20040;-80
2022/08/09 01:51:51;;;;;;;20.38;19.00;;;22.00;53.70;;;;;;5050482;28;20032;-79
2022/08/09 01:54:17;;;;;;;;;;;22.00;53.60;;;;;;5033646;28;20045;-80
2022/08/09 01:56:44;;;;;;;18.83;17.63;;;21.90;53.90;;;;;;5050504;28;19928;-80
2022/08/09 01:59:12;;;;;;;19.85;18.65;;;22.00;53.80;;;;;;5050238;28;20040;-80
2022/08/09 02:01:38;;;;;;;18.63;17.35;;;21.90;53.80;;;;;;5049790;28;20388;-80
2022/08/09 02:04:04;;;;;;;20.20;18.83;;;21.90;53.90;;;;;;5033678;28;20037;-80
2022/08/09 02:09:15;;;;;;;19.48;18.42;;;21.70;55.10;;;;;;5050263;28;20067;-80
2022/08/09 02:11:41;;;;;;;20.70;19.42;;;21.70;54.10;;;;;;5033648;28;20029;-79
2022/08/09 02:14:07;;;;;;;20.05;18.85;;;21.70;54.50;;;;;;5050069;28;20033;-80
2022/08/09 02:16:35;;;;;;;20.13;19.00;;;21.70;54.50;;;;;;5032821;28;20025;-80
2022/08/09 02:19:01;;;;;;;20.00;18.73;;;21.60;54.70;;;;;;5049894;28;20052;-80
2022/08/09 02:21:27;;;;;;;19.48;18.38;;;21.60;54.70;;;;;;5051271;28;20025;-80
2022/08/09 02:23:54;;;;;;;19.92;18.83;;;21.70;54.70;;;;;;5049527;28;20056;-80
2022/08/09 02:26:20;;;;;;;19.63;18.58;;;21.60;54.70;;;;;;5049755;28;20391;-79
2022/08/09 02:28:49;;;;;;;20.25;19.02;;;21.60;55.00;;;;;;5049834;28;20044;-80
2022/08/09 02:31:29;;;;;;;20.17;18.88;;;21.60;55.00;;;;;;5049260;28;20025;-80
2022/08/09 02:33:56;;;;;;;20.10;18.90;;;21.50;55.20;;;;;;5049780;28;20115;-80
2022/08/09 02:36:36;;;;;;;21.45;20.02;;;21.50;55.10;;;;;;5032708;28;20041;-80
2022/08/09 02:39:07;;;;;;;20.45;19.15;;;21.50;55.20;;;;;;5049363;28;20040;-80
2022/08/09 02:41:46;;;;;;;20.60;19.10;;;21.40;55.40;;;;;;5032680;28;20037;-80
2022/08/09 02:44:19;;;;;;;19.83;18.23;;;21.40;55.40;;;;;;5024092;28;20029;-80
2022/08/09 02:46:46;;;;;;;20.38;19.23;;;21.40;55.40;;;;;;5028250;28;20056;-80
2022/08/09 02:49:13;;;;;;;20.42;19.10;;;21.30;55.70;;;;;;5049784;28;20052;-79
2022/08/09 02:51:40;;;;;;;20.70;19.35;;;21.20;55.80;;;;;;5032994;28;20040;-80
2022/08/09 02:54:08;;;;;;;22.15;20.35;;;21.20;55.70;;;;;;5049268;28;20033;-80
2022/08/09 02:56:34;;;;;;;21.63;20.17;;;21.20;55.90;;;;;;5049545;28;20047;-80
2022/08/09 02:59:02;;;;;;;21.00;19.48;;;21.20;55.80;;;;;;5049465;28;20037;-80
2022/08/09 03:01:28;;;;;;;22.05;20.52;;;21.10;56.10;;;;;;5032333;28;20037;-79
2022/08/09 03:03:54;;;;;;;20.90;19.65;;;21.10;56.00;;;;;;5049455;28;20040;-80
2022/08/09 03:06:21;;;;;;;22.65;21.35;;;21.10;56.00;;;;;;5032701;28;20037;-80
2022/08/09 03:08:47;;;;;;;22.55;21.20;;;21.10;56.10;;;;;;5049188;28;20037;-80
2022/08/09 03:11:14;;;;;;;22.85;21.42;;;21.10;56.40;;;;;;5049259;28;20036;-80
2022/08/09 03:13:41;;;;;;;22.65;21.45;;;21.00;56.20;;;;;;5032686;28;20052;-79
2022/08/09 03:16:07;;;;;;;21.65;20.45;;;21.00;56.20;;;;;;5032318;28;20036;-80
2022/08/09 03:18:34;;;;;;;22.90;21.55;;;21.00;56.40;;;;;;5032761;28;20033;-79
2022/08/09 03:21:01;;;;;;;23.00;21.40;;;20.90;56.70;;;;;;5048976;28;20037;-79
2022/08/09 03:23:28;;;;;;;22.73;21.35;;;20.90;56.50;;;;;;5049454;28;20810;-80
2022/08/09 03:25:54;;;;;;;22.38;20.98;;;21.00;56.30;;;;;;5049427;28;20490;-79
2022/08/09 03:28:20;;;;;;;24.40;23.00;;;20.90;56.60;;;;;;5032456;28;20045;-80
2022/08/09 03:30:47;;;;;;;21.67;20.27;;;20.80;56.70;;;;;;5032120;28;20392;-79
2022/08/09 03:33:13;;;;;;;24.30;22.48;;;20.80;56.60;;;;;;5032274;28;20048;-80
2022/08/09 03:35:40;;;;;;;21.52;20.08;;;20.80;56.90;;;;;;5048745;28;20032;-80
2022/08/09 03:38:06;;;;;;;23.63;22.13;;;20.80;56.60;;;;;;5049412;28;20395;-80
2022/08/09 03:40:32;;;;;;;20.55;19.38;;;20.80;56.60;;;;;;5032590;28;20045;-79
2022/08/09 03:42:58;;;;;;;22.42;20.77;;;20.80;56.80;;;;;;5032122;28;20037;-80
2022/08/09 03:45:25;;;;;;;25.20;23.30;;;20.80;56.70;;;;;;5033856;28;20476;-80
2022/08/09 03:47:51;;;;;;;21.67;20.35;;;20.80;56.70;;;;;;5049019;28;20363;-79
2022/08/09 03:50:17;;;;;;;22.65;21.08;;;20.70;56.80;;;;;;5048670;28;20426;-79
2022/08/09 03:52:44;;;;;;;23.02;21.33;;;20.70;56.90;;;;;;5049354;28;20029;-79
2022/08/09 03:55:10;;;;;;;21.25;19.85;;;20.80;56.70;;;;;;5052620;28;20033;-80
2022/08/09 03:57:36;;;;;;;22.05;20.67;;;20.70;56.70;;;;;;5035742;28;20033;-79
2022/08/09 04:00:03;;;;;;;23.50;22.05;;;20.70;56.80;;;;;;5052143;28;20047;-80
2022/08/09 04:02:30;;;;;;;22.65;21.30;;;20.60;57.00;;;;;;5052149;28;20037;-80
2022/08/09 04:04:57;;;;;;;23.33;22.05;;;20.50;57.40;;;;;;5035118;28;20041;-79
2022/08/09 04:07:23;;;;;;;23.58;22.10;;;20.40;57.60;;;;;;5052576;28;20040;-80
2022/08/09 04:09:49;;;;;;;23.90;22.27;;;20.30;57.80;;;;;;5035326;28;20056;-79
2022/08/09 04:12:19;;;;;;;23.75;22.35;;;20.30;57.80;;;;;;5052271;28;20025;-79
2022/08/09 04:14:45;;;;;;;21.83;20.30;;;20.30;57.70;;;;;;5035308;28;20041;-80
2022/08/09 04:17:11;;;;;;;21.27;19.98;;;20.30;57.90;;;;;;5051689;28;20037;-79
2022/08/09 04:19:37;;;;;;;20.73;19.17;;;20.20;58.20;;;;;;5053195;28;20040;-79
2022/08/09 04:22:03;;;;;;;21.98;20.38;;;20.20;58.10;;;;;;5035483;28;20479;-79
2022/08/09 04:24:30;;;;;;;20.98;19.35;;;20.10;58.20;;;;;;5035284;28;20052;-79
2022/08/09 04:26:56;;;;;;;20.23;19.08;;;20.10;58.30;;;;;;5052202;28;20478;-79
2022/08/09 04:29:22;;;;;;;21.73;20.33;;;20.20;58.20;;;;;;5034801;28;20049;-79
2022/08/09 04:31:50;;;;;;;19.00;17.90;;;20.10;58.40;;;;;;5051184;28;20396;-80
2022/08/09 04:34:16;;;;;;;20.77;19.67;;;20.00;58.70;;;;;;5035118;28;20041;-80
2022/08/09 04:36:42;;;;;;;20.23;18.92;;;20.00;58.60;;;;;;5052015;28;20389;-80
2022/08/09 04:39:08;;;;;;;19.55;18.35;;;20.00;58.70;;;;;;5051677;28;20040;-80
2022/08/09 04:41:34;;;;;;;19.75;18.35;;;19.90;59.10;;;;;;5035459;28;20394;-80
2022/08/09 04:44:02;;;;;;;20.50;19.17;;;19.90;58.90;;;;;;5045608;28;20041;-79
2022/08/09 04:46:28;;;;;;;19.45;18.27;;;19.90;59.20;;;;;;5024145;28;20049;-80
2022/08/09 04:48:54;;;;;;;20.73;19.38;;;19.90;59.40;;;;;;5047865;28;20472;-80
2022/08/09 04:51:20;;;;;;;20.88;19.48;;;19.90;59.20;;;;;;5048271;28;20037;-80
2022/08/09 04:53:46;;;;;;;20.23;18.92;;;19.90;59.00;;;;;;5048272;28;20025;-80
2022/08/09 04:56:12;;;;;;;21.85;20.25;;;19.90;59.00;;;;;;5031572;28;20040;-80
2022/08/09 04:58:38;;;;;;;20.88;19.52;;;19.90;59.10;;;;;;5031303;28;20234;-79
2022/08/09 05:01:04;;;;;;;20.42;19.05;;;19.90;59.30;;;;;;5047646;28;20484;-79
2022/08/09 05:03:31;;;;;;;21.05;19.75;;;19.80;59.20;;;;;;5030792;28;20238;-79
2022/08/09 05:05:57;;;;;;;21.55;20.10;;;19.80;59.30;;;;;;5047910;28;20036;-80
2022/08/09 05:08:23;;;;;;;23.63;22.23;;;19.90;59.40;;;;;;5047975;28;20022;-79
2022/08/09 05:10:49;;;;;;;23.30;21.85;;;19.80;59.60;;;;;;5031227;28;20056;-79
2022/08/09 05:13:15;;;;;;;24.05;22.55;;;19.70;60.00;;;;;;5032419;28;20029;-80
2022/08/09 05:15:41;;;;;;;22.25;20.73;;;19.60;59.80;;;;;;5047265;28;20029;-80
2022/08/09 05:18:07;;;;;;;24.23;22.50;;;19.60;60.40;;;;;;5047559;28;20037;-79
2022/08/09 05:20:34;;;;;;;24.80;23.33;;;19.60;60.30;;;;;;5047751;28;20029;-79
2022/08/09 05:23:00;;;;;;;24.15;22.55;;;19.50;60.50;;;;;;5047414;28;20021;-79
2022/08/09 05:25:26;;;;;;;24.33;22.55;;;19.50;60.40;;;;;;5047800;28;20025;-80
2022/08/09 05:27:52;;;;;;;25.83;24.33;;;19.50;60.60;;;;;;5030742;28;20044;-79
2022/08/09 05:30:18;;;;;;;22.95;21.52;;;19.50;60.70;;;;;;5046881;28;20404;-79
2022/08/09 05:32:44;;;;;;;23.02;21.27;;;19.60;60.50;;;;;;5030617;28;20041;-80
2022/08/09 05:35:11;;;;;;;22.38;20.88;;;19.60;60.40;;;;;;5045708;28;20490;-80
2022/08/09 05:37:37;;;;;;;21.73;20.20;;;19.70;60.50;;;;;;5034367;28;20060;-79
2022/08/09 05:40:05;;;;;;;23.20;21.80;;;19.60;60.70;;;;;;5019696;28;20037;-80
2022/08/09 05:42:32;;;;;;;22.55;21.35;;;19.70;60.40;;;;;;5014205;28;20447;-80
2022/08/09 05:44:58;;;;;;;23.90;22.52;;;19.80;60.00;;;;;;5028938;28;20048;-79
2022/08/09 05:47:25;;;;;;;22.98;21.48;;;19.80;60.10;;;;;;5033120;28;20056;-80
2022/08/09 05:49:51;;;;;;;21.65;20.35;;;19.80;60.10;;;;;;5033572;28;20060;-80
2022/08/09 05:52:18;;;;;;;20.05;18.60;;;20.00;59.60;;;;;;5033782;28;20036;-79
2022/08/09 05:54:44;;;;;;;20.20;18.90;;;20.10;59.30;;;;;;5033824;28;20028;-79
2022/08/09 05:57:10;;;;;;;18.98;17.75;;;20.20;59.30;;;;;;5050585;28;20060;-79
2022/08/09 05:59:36;;;;;;;19.85;18.75;;;20.10;59.50;;;;;;5033663;28;20036;-79
2022/08/09 06:02:02;;;;;;;20.63;19.33;;;20.10;59.60;;;;;;5033105;28;20033;-79
2022/08/09 06:04:28;;;;;;;21.00;19.10;;;20.20;59.40;;;;;;5033892;28;20487;-79
2022/08/09 06:06:54;;;;;;;20.35;19.05;;;20.30;59.10;;;;;;5050247;28;20025;-79
2022/08/09 06:09:20;;;;;;;18.90;17.70;;;20.20;59.20;;;;;;5051319;28;20399;-79
2022/08/09 06:11:46;;;;;;;19.27;18.08;;;20.30;59.10;;;;;;5050020;28;20028;-79
2022/08/09 06:14:13;;;;;;;19.23;18.13;;;20.30;59.00;;;;;;5033357;28;20398;-79
2022/08/09 06:16:39;;;;;;;20.75;19.55;;;20.40;58.80;;;;;;5048585;28;20029;-79
2022/08/09 06:19:05;;;;;;;18.73;17.52;;;20.30;59.10;;;;;;5033677;28;20059;-80
2022/08/09 06:21:31;;;;;;;19.58;18.27;;;20.40;58.90;;;;;;5032185;28;20086;-79
2022/08/09 06:23:57;;;;;;;19.00;17.80;;;20.40;58.90;;;;;;5049975;28;20052;-79
2022/08/09 06:26:23;;;;;;;22.00;20.35;;;20.60;58.70;;;;;;5049960;28;20032;-79
2022/08/09 06:28:53;;;;;;;22.20;20.80;;;20.80;58.30;;;;;;5033561;28;20032;-80
2022/08/09 06:31:20;;;;;;;20.50;19.20;;;20.80;58.00;;;;;;5046843;28;20040;-80
2022/08/09 06:33:46;;;;;;;20.38;19.20;;;20.90;58.00;;;;;;5016927;28;20040;-80
2022/08/09 06:36:12;;;;;;;21.17;19.70;;;21.00;57.80;;;;;;5051080;28;20035;-79
2022/08/09 06:38:39;;;;;;;19.52;18.13;;;21.10;57.60;;;;;;5047159;28;20039;-79
2022/08/09 06:41:05;;;;;;;19.45;18.00;;;21.20;57.10;;;;;;5013413;28;20659;-79
2022/08/09 06:43:31;;;;;;;20.15;18.95;;;21.20;57.20;;;;;;5032612;28;20040;-80
2022/08/09 06:45:57;;;;;;;20.58;19.33;;;21.20;57.00;;;;;;5049658;28;20525;-80
2022/08/09 06:48:24;;;;;;;22.05;20.52;;;21.30;57.00;;;;;;5032818;28;20049;-80
2022/08/09 06:50:50;;;;;;;19.92;18.70;;;21.20;57.00;;;;;;5032895;28;20045;-80
2022/08/09 06:53:16;;;;;;;21.05;19.40;;;21.30;57.10;;;;;;5033111;28;20025;-79
2022/08/09 06:55:42;;;;;;;21.52;20.02;;;21.50;56.90;;;;;;5049806;28;20044;-79
2022/08/09 06:58:08;;;;;;;24.48;23.05;;;21.70;56.10;;;;;;5032742;28;20037;-79
2022/08/09 07:00:35;;;;;;;23.83;22.15;;;21.70;56.00;;;;;;5032211;28;20593;-80
2022/08/09 07:03:01;;;;;;;24.25;22.35;;;21.60;56.20;;;;;;5032969;28;20060;-80
2022/08/09 07:05:28;;;;;;;23.00;21.30;;;21.70;56.10;;;;;;5032999;28;20052;-80
2022/08/09 07:07:54;;;;;;;28.13;26.00;;;21.90;55.90;;;;;;5032872;28;20383;-80
2022/08/09 07:10:23;;;;;;;26.17;24.08;;;22.10;55.20;;;;;;5032801;28;20063;-80
2022/08/09 07:12:49;;;;;;;25.73;23.85;;;22.30;55.00;;;;;;5016698;28;20044;-80
2022/08/09 07:15:15;;;;;;;26.73;24.42;;;22.30;54.80;;;;;;5032064;28;20029;-80
2022/08/09 07:17:42;;;;;;;30.58;28.00;;;22.50;54.50;;;;;;5049280;28;20047;-80
2022/08/09 07:20:08;;;;;;;30.58;27.77;;;22.40;54.00;;;;;;5033087;28;20059;-79
2022/08/09 07:22:35;;;;;;;33.78;30.70;;;22.40;54.40;;;;;;5032674;28;20028;-79
2022/08/09 07:25:04;;;;;;;34.35;30.77;;;22.50;54.40;;;;;;5032946;28;20471;-80
2022/08/09 07:27:30;;;;;;;34.58;31.55;;;22.70;54.10;;;;;;5034185;28;20044;-79
2022/08/09 07:29:56;;;;;;;39.38;35.55;;;22.80;53.80;;;;;;5036341;28;20051;-80
2022/08/09 07:32:22;;;;;;;42.22;37.75;;;22.90;53.30;;;;;;5035626;28;20032;-80
2022/08/09 07:34:49;;;;;;;42.55;38.42;;;22.90;53.30;;;;;;5019468;28;20045;-80
2022/08/09 07:37:15;;;;;;;48.03;43.20;;;23.10;52.90;;;;;;5052902;28;20029;-80
2022/08/09 07:39:41;;;;;;;46.60;41.55;;;22.90;53.00;;;;;;5041341;28;20033;-80
2022/08/09 07:42:07;;;;;;;47.70;40.70;;;23.10;52.90;;;;;;4999882;28;20034;-79
2022/08/09 07:44:33;;;;;;;50.33;45.35;;;23.20;52.70;;;;;;5008299;28;20400;-80
2022/08/09 07:46:59;;;;;;;51.13;45.67;;;23.30;52.50;;;;;;5050541;28;20538;-80
2022/08/09 07:49:26;;;;;;;55.50;49.58;;;23.40;52.10;;;;;;5052907;28;20526;-80
2022/08/09 07:51:52;;;;;;;62.75;55.70;;;23.60;51.70;;;;;;5036335;28;20052;-79
2022/08/09 07:54:18;;;;;;;59.67;53.35;;;23.70;51.50;;;;;;5052692;28;20052;-80
2022/08/09 07:56:44;;;;;;;77.93;65.78;;;23.90;50.80;;;;;;5052484;28;20040;-79
2022/08/09 07:59:11;;;;;;;60.42;53.97;;;23.90;50.60;;;;;;5052558;28;20494;-79
2022/08/09 08:01:37;;;;;;;63.20;56.10;;;23.80;51.00;;;;;;5052088;28;20037;-79
2022/08/09 08:04:03;;;;;;;70.57;62.17;;;23.70;51.10;;;;;;5052370;28;20032;-80
2022/08/09 08:06:30;;;;;;;72.72;64.15;;;23.90;50.80;;;;;;5052556;28;20025;-80
2022/08/09 08:08:56;;;;;;;76.43;68.15;;;24.10;50.10;;;;;;5052496;28;20021;-79
2022/08/09 08:11:22;;;;;;;73.40;65.43;;;24.20;50.00;;;;;;5034277;28;20513;-79
2022/08/09 08:13:49;;;;;;;67.28;60.03;;;24.30;49.70;;;;;;5051871;28;20044;-80
2022/08/09 08:16:15;;;;;;;66.22;59.35;;;24.40;49.70;;;;;;5051812;28;20041;-79
2022/08/09 08:18:41;;;;;;;60.45;54.08;;;24.60;49.40;;;;;;5052130;28;20021;-79
2022/08/09 08:21:07;;;;;;;59.85;53.78;;;24.70;49.10;;;;;;5052254;28;20025;-79
2022/08/09 08:23:33;;;;;;;61.30;55.22;;;24.60;49.00;;;;;;5053378;28;20028;-79
2022/08/09 08:25:59;;;;;;;67.07;58.45;;;24.60;49.20;;;;;;5052186;28;20029;-79
2022/08/09 08:28:25;;;;;;;68.72;61.22;;;24.70;49.10;;;;;;5052120;28;20036;-79
2022/08/09 08:30:51;;;;;;;75.25;67.10;;;24.90;48.60;;;;;;5051401;28;20049;-79
2022/08/09 08:33:17;;;;;;;88.40;74.82;;;25.00;48.60;;;;;;5035554;28;20044;-80
2022/08/09 08:35:43;;;;;;;80.05;72.00;;;25.10;48.00;;;;;;5051740;28;20028;-80
2022/08/09 08:38:10;;;;;;;78.75;68.57;;;25.10;47.90;;;;;;5035343;28;20047;-79
2022/08/09 08:40:36;;;;;;;82.63;72.15;;;25.20;47.90;;;;;;5051062;28;20036;-80
2022/08/09 08:43:02;;;;;;;85.75;76.53;;;25.30;47.80;;;;;;5034947;28;20052;-80
2022/08/09 08:45:31;;;;;;;82.13;73.05;;;25.50;47.40;;;;;;5019957;28;20395;-80
2022/08/09 08:47:57;;;;;;;71.03;63.42;;;25.50;47.20;;;;;;5034986;28;20407;-80
2022/08/09 08:50:23;;;;;;;69.90;62.25;;;25.60;47.10;;;;;;5034951;28;20045;-80
2022/08/09 08:52:51;;;;;;;70.78;63.38;;;25.70;46.60;;;;;;5051865;28;20415;-80
2022/08/09 08:55:17;;;;;;;72.38;64.68;;;25.70;46.70;;;;;;5051194;28;20480;-80
2022/08/09 08:57:43;;;;;;;87.07;71.25;;;25.80;46.80;;;;;;5051481;28;20040;-80
2022/08/09 09:00:10;;;;;;;76.07;67.95;;;25.80;46.60;;;;;;5051115;28;20391;-80
2022/08/09 09:02:36;;;;;;;79.65;71.15;;;26.00;46.50;;;;;;5051333;28;20025;-80
2022/08/09 09:05:02;;;;;;;73.03;65.55;;;26.10;46.30;;;;;;5050218;28;20037;-80
2022/08/09 09:07:29;;;;;;;77.25;69.15;;;26.10;45.90;;;;;;5034435;28;20033;-80
2022/08/09 09:09:56;;;;;;;87.50;74.38;;;26.20;45.80;;;;;;5050898;28;20403;-80
2022/08/09 09:12:27;;;;;;;84.10;72.70;;;26.20;45.80;;;;;;5051094;28;20032;-80
2022/08/09 09:14:53;;;;;;;85.63;72.97;;;26.20;45.40;;;;;;5034947;28;20510;-80
2022/08/09 09:17:19;;;;;;;73.05;65.30;;;26.30;45.60;;;;;;5050789;28;20052;-80
2022/08/09 09:19:45;;;;;;;84.30;75.80;;;26.40;45.40;;;;;;5033999;28;20029;-80
2022/08/09 09:22:13;;;;;;;73.70;65.78;;;26.60;45.00;;;;;;5051126;28;20033;-80
2022/08/09 09:24:52;;;;;;;70.93;63.78;;;26.70;44.80;;;;;;5033557;28;20064;-80
2022/08/09 09:27:22;;;;;;;67.50;60.67;;;26.60;44.90;;;;;;5050928;28;20498;-80
2022/08/09 09:29:48;;;;;;;57.70;51.88;;;26.60;44.70;;;;;;5050705;28;20467;-79
2022/08/09 09:32:24;;;;;;;49.65;45.75;;;26.70;45.00;;;;;;5050424;28;20033;-80
2022/08/09 09:35:08;;;;;;;47.47;43.50;;;26.90;44.30;;;;;;5050560;28;20435;-80
2022/08/09 09:37:34;;;;;;;44.28;40.70;;;27.00;44.00;;;;;;5034287;28;20530;-79
2022/08/09 09:40:00;;;;;;;51.45;47.45;;;27.00;44.00;;;;;;5030165;28;20045;-80
2022/08/09 09:42:28;;;;;;;49.03;45.55;;;27.30;43.10;;;;;;5030761;28;20396;-80
2022/08/09 09:44:59;;;;;;;39.78;36.95;;;27.40;42.90;;;;;;5025391;28;20033;-80
2022/08/09 09:47:25;;;;;;;50.38;47.22;;;27.50;42.40;;;;;;4997898;28;20049;-80
2022/08/09 09:49:53;;;;;;;37.33;35.08;;;27.60;42.00;;;;;;5029983;28;20044;-80
2022/08/09 09:52:20;;;;;;;37.88;35.60;;;27.80;41.30;;;;;;5029966;28;20044;-80
2022/08/09 09:54:46;;;;;;;36.53;34.42;;;27.80;41.30;;;;;;5030373;28;20096;-80
2022/08/09 09:57:19;;;;;;;39.10;36.72;;;27.80;41.20;;;;;;5030411;28;20064;-80
2022/08/09 09:59:47;;;;;;;39.08;36.78;;;28.00;41.50;;;;;;5030568;28;20029;-80
2022/08/09 10:02:13;;;;;;;36.40;34.53;;;28.30;40.30;;;;;;5029937;28;20048;-80
2022/08/09 10:04:40;;;;;;;39.03;36.72;;;28.40;40.00;;;;;;5030354;28;20029;-80
2022/08/09 10:07:20;;;;;;;39.38;37.20;;;28.40;39.80;;;;;;5029896;28;20041;-80
2022/08/09 10:09:50;;;;;;;39.40;37.30;;;28.70;39.20;;;;;;5030356;28;20372;-80
2022/08/09 10:12:26;;;;;;;42.33;40.03;;;28.70;39.10;;;;;;5030231;28;20044;-80
2022/08/09 10:15:14;;;;;;;45.08;42.78;;;28.80;37.70;;;;;;5031549;28;20611;-80
2022/08/09 10:17:42;;;;;;;37.42;35.33;;;28.70;38.10;;;;;;4997056;28;20034;-80
2022/08/09 10:20:20;;;;;;;42.53;40.13;;;28.70;38.00;;;;;;5030218;28;20022;-80
2022/08/09 10:22:47;;;;;;;41.40;39.22;;;29.00;37.90;;;;;;5030992;28;20033;-80
2022/08/09 10:25:13;;;;;;;40.25;38.17;;;28.80;37.00;;;;;;5013367;28;20743;-80
2022/08/09 10:27:42;;;;;;;39.50;37.17;;;28.60;37.60;;;;;;5013443;28;20046;-80
2022/08/09 10:30:09;;;;;;;38.58;36.58;;;28.70;37.30;;;;;;5029632;28;20506;-80
2022/08/09 10:32:35;;;;;;;43.10;40.60;;;28.90;37.20;;;;;;5029894;28;20029;-80
2022/08/09 10:35:02;;;;;;;47.92;45.20;;;29.00;37.10;;;;;;5020347;28;20429;-80
2022/08/09 10:37:28;;;;;;;1999.90;999.90;;;29.10;37.10;;;;;;5049321;28;20029;-80
2022/08/09 10:39:54;;;;;;;1999.90;999.90;;;29.20;37.00;;;;;;5036257;28;20033;-80
2022/08/09 10:42:21;;;;;;;49.40;46.30;;;29.30;36.30;;;;;;5013431;28;20384;-80
2022/08/09 10:44:49;;;;;;;46.60;43.47;;;29.10;36.30;;;;;;5006950;28;20041;-80
2022/08/09 10:47:36;;;;;;;50.38;47.17;;;29.10;36.70;;;;;;5031331;28;20060;-80
2022/08/09 10:50:27;;;;;;;47.85;44.75;;;29.20;36.40;;;;;;5050758;28;20365;-80
2022/08/09 10:53:45;;;;;;;1999.90;999.90;;;29.30;36.40;;;;;;5049448;28;20036;-80
2022/08/09 10:56:19;;;;;;;1999.90;999.90;;;29.60;36.50;;;;;;5035346;28;20039;-80
2022/08/09 10:58:45;;;;;;;1999.90;999.90;;;29.80;36.10;;;;;;5050996;28;20471;-80
2022/08/09 11:01:36;;;;;;;1999.90;999.90;;;29.90;36.10;;;;;;5049042;28;20026;-80
2022/08/09 11:04:08;;;;;;;1999.90;999.90;;;30.00;35.40;;;;;;5037508;28;20254;-80
2022/08/09 11:06:38;;;;;;;1999.90;999.90;;;30.10;35.50;;;;;;5054268;28;20033;-80
2022/08/09 11:09:05;;;;;;;1999.90;999.90;;;30.20;35.10;;;;;;5053449;28;20044;-80
2022/08/09 11:11:57;;;;;;;1999.90;999.90;;;30.20;35.00;;;;;;5037108;28;20049;-80
2022/08/09 11:14:32;;;;;;;1999.90;999.90;;;30.20;35.00;;;;;;5053086;28;20041;-80
2022/08/09 11:16:58;;;;;;;1999.90;999.90;;;30.00;34.80;;;;;;5053008;28;20029;-80
2022/08/09 11:19:57;;;;;;;1999.90;999.90;;;29.90;35.00;;;;;;5053063;28;20021;-79
2022/08/09 11:22:45;;;;;;;1999.90;999.90;;;30.10;35.10;;;;;;5052938;28;20040;-80
2022/08/09 11:25:22;;;;;;;1999.90;999.90;;;30.50;35.00;;;;;;5053031;28;20044;-80
2022/08/09 11:27:50;;;;;;;1999.90;999.90;;;30.50;34.30;;;;;;5053344;28;20033;-80
2022/08/09 11:30:22;;;;;;;1999.90;999.90;;;30.50;34.30;;;;;;5035755;28;20044;-80
2022/08/09 11:33:09;;;;;;;1999.90;999.90;;;30.40;34.30;;;;;;5054254;28;20036;-80
2022/08/09 11:35:37;;;;;;;1999.90;999.90;;;30.40;34.50;;;;;;5052572;28;20494;-80
2022/08/09 11:38:21;;;;;;;1999.90;999.90;;;30.50;34.70;;;;;;5054117;28;20033;-80
2022/08/09 11:40:47;;;;;;;1999.90;999.90;;;30.70;34.20;;;;;;5034267;28;20052;-80
2022/08/09 11:43:34;;;;;;;1999.90;999.90;;;30.70;34.60;;;;;;5016946;28;20042;-80
2022/08/09 11:46:01;;;;;;;1999.90;999.90;;;30.60;34.10;;;;;;5031306;28;20057;-80
2022/08/09 11:48:29;;;;;;;1999.90;999.90;;;30.60;34.20;;;;;;5032389;28;20049;-79
2022/08/09 11:50:58;;;;;;;1999.90;999.90;;;30.60;34.10;;;;;;5032622;28;20052;-80
2022/08/09 11:53:25;;;;;;;1999.90;999.90;;;30.60;33.80;;;;;;5032628;28;20514;-80
2022/08/09 11:55:59;;;;;;;1999.90;999.90;;;30.90;33.90;;;;;;5032607;28;20394;-80
2022/08/09 11:58:29;;;;;;;1999.90;999.90;;;31.10;33.60;;;;;;5049443;28;20506;-80
2022/08/09 12:01:05;;;;;;;1999.90;999.90;;;31.20;32.80;;;;;;5031979;28;20391;-80
2022/08/09 12:03:31;;;;;;;1999.90;999.90;;;31.20;33.20;;;;;;5048777;28;20044;-80
2022/08/09 12:05:58;;;;;;;1999.90;999.90;;;31.20;33.20;;;;;;5031996;28;20036;-80
2022/08/09 12:08:25;;;;;;;1999.90;999.90;;;31.40;33.10;;;;;;5032085;28;20042;-80
2022/08/09 12:10:56;;;;;;;1999.90;999.90;;;31.60;32.80;;;;;;5048973;28;20048;-80
2022/08/09 12:13:38;;;;;;;1999.90;999.90;;;31.40;32.00;;;;;;5031599;28;20041;-80
2022/08/09 12:16:09;;;;;;;1999.90;999.90;;;31.30;32.30;;;;;;5048396;28;20420;-80
2022/08/09 12:18:36;;;;;;;1999.90;999.90;;;31.40;32.30;;;;;;5048699;28;20468;-80
2022/08/09 12:21:04;;;;;;;1999.90;999.90;;;31.60;31.40;;;;;;5048919;28;20396;-80
2022/08/09 12:23:31;;;;;;;1999.90;999.90;;;31.40;31.10;;;;;;5048848;28;20495;-80
2022/08/09 12:25:57;;;;;;;1999.90;999.90;;;31.60;31.70;;;;;;5048938;28;20049;-80
2022/08/09 12:28:24;;;;;;;1999.90;999.90;;;31.60;31.40;;;;;;5048759;28;20036;-80
2022/08/09 12:30:50;;;;;;;1999.90;999.90;;;31.50;31.70;;;;;;5031422;28;20080;-80
2022/08/09 12:33:17;;;;;;;1999.90;999.90;;;31.60;31.70;;;;;;5033053;28;20030;-80